sensor_id;sensor_type;location;lat;lon;timestamp;temperature;humidity
23715;DHT22;12036;50.858;4.472;2022-07-23T00:00:16;16.70;99.90
23715;DHT22;12036;50.858;4.472;2022-07-23T00:02:42;16.70;99.90
23715;DHT22;12036;50.858;4.472;2022-07-23T00:05:08;16.70;99.90
23715;DHT22;12036;50.858;4.472;2022-07-23T00:07:35;16.70;99.90
23715;DHT22;12036;50.858;4.472;2022-07-23T00:10:00;16.70;99.90
23715;DHT22;12036;50.858;4.472;2022-07-23T00:12:26;16.70;99.90
23715;DHT22;12036;50.858;4.472;2022-07-23T00:14:52;16.70;99.90
23715;DHT22;12036;50.858;4.472;2022-07-23T00:17:17;16.60;99.90
23715;DHT22;12036;50.858;4.472;2022-07-23T00:19:43;16.60;99.90
23715;DHT22;12036;50.858;4.472;2022-07-23T00:22:09;16.70;99.90
23715;DHT22;12036;50.858;4.472;2022-07-23T00:24:34;16.60;99.90
23715;DHT22;12036;50.858;4.472;2022-07-23T00:27:00;16.60;99.90
23715;DHT22;12036;50.858;4.472;2022-07-23T00:29:26;16.60;99.90
23715;DHT22;12036;50.858;4.472;2022-07-23T00:31:51;16.60;99.90
23715;DHT22;12036;50.858;4.472;2022-07-23T00:34:17;16.50;99.90
23715;DHT22;12036;50.858;4.472;2022-07-23T00:36:43;16.50;99.90
23715;DHT22;12036;50.858;4.472;2022-07-23T00:39:08;16.40;99.90
23715;DHT22;12036;50.858;4.472;2022-07-23T00:41:34;16.40;99.90
23715;DHT22;12036;50.858;4.472;2022-07-23T00:44:22;16.40;99.90
23715;DHT22;12036;50.858;4.472;2022-07-23T00:46:51;16.40;99.90
23715;DHT22;12036;50.858;4.472;2022-07-23T00:49:23;16.30;99.90
23715;DHT22;12036;50.858;4.472;2022-07-23T00:51:49;16.30;99.90
23715;DHT22;12036;50.858;4.472;2022-07-23T00:54:16;16.30;99.90
23715;DHT22;12036;50.858;4.472;2022-07-23T00:56:46;16.30;99.90
23715;DHT22;12036;50.858;4.472;2022-07-23T00:59:12;16.20;99.90
23715;DHT22;12036;50.858;4.472;2022-07-23T01:01:38;16.20;99.90
23715;DHT22;12036;50.858;4.472;2022-07-23T01:04:04;16.20;99.90
23715;DHT22;12036;50.858;4.472;2022-07-23T01:06:34;16.20;99.90
23715;DHT22;12036;50.858;4.472;2022-07-23T01:09:00;16.20;99.90
23715;DHT22;12036;50.858;4.472;2022-07-23T01:11:26;16.10;99.90
23715;DHT22;12036;50.858;4.472;2022-07-23T01:13:52;16.10;99.90
23715;DHT22;12036;50.858;4.472;2022-07-23T01:16:19;16.10;99.90
23715;DHT22;12036;50.858;4.472;2022-07-23T01:18:44;16.00;99.90
23715;DHT22;12036;50.858;4.472;2022-07-23T01:21:12;16.10;99.90
23715;DHT22;12036;50.858;4.472;2022-07-23T01:23:41;16.00;99.90
23715;DHT22;12036;50.858;4.472;2022-07-23T01:26:06;16.00;99.90
23715;DHT22;12036;50.858;4.472;2022-07-23T01:28:32;16.00;99.90
23715;DHT22;12036;50.858;4.472;2022-07-23T01:30:58;16.00;99.90
23715;DHT22;12036;50.858;4.472;2022-07-23T01:33:23;15.90;99.90
23715;DHT22;12036;50.858;4.472;2022-07-23T01:35:49;15.90;99.90
23715;DHT22;12036;50.858;4.472;2022-07-23T01:38:15;15.90;99.90
23715;DHT22;12036;50.858;4.472;2022-07-23T01:40:40;15.90;99.90
23715;DHT22;12036;50.858;4.472;2022-07-23T01:43:06;15.80;99.90
23715;DHT22;12036;50.858;4.472;2022-07-23T01:45:31;15.80;99.90
23715;DHT22;12036;50.858;4.472;2022-07-23T01:47:57;15.80;99.90
23715;DHT22;12036;50.858;4.472;2022-07-23T01:50:23;15.80;99.90
23715;DHT22;12036;50.858;4.472;2022-07-23T01:52:49;15.80;99.90
23715;DHT22;12036;50.858;4.472;2022-07-23T01:55:14;15.80;99.90
23715;DHT22;12036;50.858;4.472;2022-07-23T01:57:40;15.80;99.90
23715;DHT22;12036;50.858;4.472;2022-07-23T02:00:06;15.70;99.90
23715;DHT22;12036;50.858;4.472;2022-07-23T02:02:32;15.70;99.90
23715;DHT22;12036;50.858;4.472;2022-07-23T02:04:57;15.70;99.90
23715;DHT22;12036;50.858;4.472;2022-07-23T02:07:23;15.70;99.90
23715;DHT22;12036;50.858;4.472;2022-07-23T02:09:48;15.70;99.90
23715;DHT22;12036;50.858;4.472;2022-07-23T02:12:14;15.70;99.90
23715;DHT22;12036;50.858;4.472;2022-07-23T02:14:40;15.70;99.90
23715;DHT22;12036;50.858;4.472;2022-07-23T02:17:05;15.60;99.90
23715;DHT22;12036;50.858;4.472;2022-07-23T02:19:31;15.50;99.90
23715;DHT22;12036;50.858;4.472;2022-07-23T02:21:57;15.50;99.90
23715;DHT22;12036;50.858;4.472;2022-07-23T02:24:22;15.50;99.90
23715;DHT22;12036;50.858;4.472;2022-07-23T02:26:48;15.50;99.90
23715;DHT22;12036;50.858;4.472;2022-07-23T02:29:14;15.40;99.90
23715;DHT22;12036;50.858;4.472;2022-07-23T02:31:39;15.40;99.90
23715;DHT22;12036;50.858;4.472;2022-07-23T02:34:05;15.40;99.90
23715;DHT22;12036;50.858;4.472;2022-07-23T02:36:31;15.30;99.90
23715;DHT22;12036;50.858;4.472;2022-07-23T02:38:56;15.30;99.90
23715;DHT22;12036;50.858;4.472;2022-07-23T02:41:22;15.20;99.90
23715;DHT22;12036;50.858;4.472;2022-07-23T02:43:48;15.20;99.90
23715;DHT22;12036;50.858;4.472;2022-07-23T02:46:14;15.20;99.90
23715;DHT22;12036;50.858;4.472;2022-07-23T02:48:39;15.20;99.90
23715;DHT22;12036;50.858;4.472;2022-07-23T02:51:05;15.20;99.90
23715;DHT22;12036;50.858;4.472;2022-07-23T02:53:31;15.10;99.90
23715;DHT22;12036;50.858;4.472;2022-07-23T02:55:56;15.00;99.90
23715;DHT22;12036;50.858;4.472;2022-07-23T02:58:22;15.10;99.90
23715;DHT22;12036;50.858;4.472;2022-07-23T03:00:48;15.00;99.90
23715;DHT22;12036;50.858;4.472;2022-07-23T03:03:13;15.00;99.90
23715;DHT22;12036;50.858;4.472;2022-07-23T03:05:39;15.00;99.90
23715;DHT22;12036;50.858;4.472;2022-07-23T03:08:05;15.00;99.90
23715;DHT22;12036;50.858;4.472;2022-07-23T03:10:30;15.00;99.90
23715;DHT22;12036;50.858;4.472;2022-07-23T03:12:56;15.00;99.90
23715;DHT22;12036;50.858;4.472;2022-07-23T03:15:21;14.90;99.90
23715;DHT22;12036;50.858;4.472;2022-07-23T03:17:47;14.90;99.90
23715;DHT22;12036;50.858;4.472;2022-07-23T03:20:13;14.90;99.90
23715;DHT22;12036;50.858;4.472;2022-07-23T03:22:38;14.90;99.90
23715;DHT22;12036;50.858;4.472;2022-07-23T03:25:04;14.90;99.90
23715;DHT22;12036;50.858;4.472;2022-07-23T03:27:30;14.80;99.90
23715;DHT22;12036;50.858;4.472;2022-07-23T03:29:57;14.80;99.90
23715;DHT22;12036;50.858;4.472;2022-07-23T03:32:24;14.80;99.90
23715;DHT22;12036;50.858;4.472;2022-07-23T03:34:50;14.80;99.90
23715;DHT22;12036;50.858;4.472;2022-07-23T03:37:17;14.80;99.90
23715;DHT22;12036;50.858;4.472;2022-07-23T03:39:43;14.70;99.90
23715;DHT22;12036;50.858;4.472;2022-07-23T03:42:09;14.70;99.90
23715;DHT22;12036;50.858;4.472;2022-07-23T03:44:35;14.70;99.90
23715;DHT22;12036;50.858;4.472;2022-07-23T03:47:05;14.70;99.90
23715;DHT22;12036;50.858;4.472;2022-07-23T03:49:31;14.70;99.90
23715;DHT22;12036;50.858;4.472;2022-07-23T03:51:56;14.70;99.90
23715;DHT22;12036;50.858;4.472;2022-07-23T03:54:22;14.70;99.90
23715;DHT22;12036;50.858;4.472;2022-07-23T03:56:48;14.60;99.90
23715;DHT22;12036;50.858;4.472;2022-07-23T03:59:13;14.70;99.90
23715;DHT22;12036;50.858;4.472;2022-07-23T04:01:39;14.70;99.90
23715;DHT22;12036;50.858;4.472;2022-07-23T04:04:05;14.70;99.90
23715;DHT22;12036;50.858;4.472;2022-07-23T04:06:31;14.70;99.90
23715;DHT22;12036;50.858;4.472;2022-07-23T04:08:58;14.70;99.90
23715;DHT22;12036;50.858;4.472;2022-07-23T04:11:23;14.70;99.90
23715;DHT22;12036;50.858;4.472;2022-07-23T04:13:49;14.70;99.90
23715;DHT22;12036;50.858;4.472;2022-07-23T04:16:14;14.70;99.90
23715;DHT22;12036;50.858;4.472;2022-07-23T04:18:40;14.70;99.90
23715;DHT22;12036;50.858;4.472;2022-07-23T04:21:06;14.80;99.90
23715;DHT22;12036;50.858;4.472;2022-07-23T04:23:31;14.80;99.90
23715;DHT22;12036;50.858;4.472;2022-07-23T04:25:57;14.90;99.90
23715;DHT22;12036;50.858;4.472;2022-07-23T04:28:23;14.90;99.90
23715;DHT22;12036;50.858;4.472;2022-07-23T04:30:48;14.90;99.90
23715;DHT22;12036;50.858;4.472;2022-07-23T04:33:14;15.00;99.90
23715;DHT22;12036;50.858;4.472;2022-07-23T04:35:39;15.10;99.90
23715;DHT22;12036;50.858;4.472;2022-07-23T04:38:05;15.10;99.90
23715;DHT22;12036;50.858;4.472;2022-07-23T04:40:31;15.10;99.90
23715;DHT22;12036;50.858;4.472;2022-07-23T04:42:57;15.20;99.90
23715;DHT22;12036;50.858;4.472;2022-07-23T04:45:23;15.20;99.90
23715;DHT22;12036;50.858;4.472;2022-07-23T04:47:50;15.20;99.90
23715;DHT22;12036;50.858;4.472;2022-07-23T04:50:16;15.30;99.90
23715;DHT22;12036;50.858;4.472;2022-07-23T04:52:47;15.50;99.90
23715;DHT22;12036;50.858;4.472;2022-07-23T04:55:14;15.80;99.90
23715;DHT22;12036;50.858;4.472;2022-07-23T04:57:40;16.40;99.90
23715;DHT22;12036;50.858;4.472;2022-07-23T05:00:07;17.10;99.90
23715;DHT22;12036;50.858;4.472;2022-07-23T05:02:33;17.70;99.90
23715;DHT22;12036;50.858;4.472;2022-07-23T05:04:59;18.20;99.90
23715;DHT22;12036;50.858;4.472;2022-07-23T05:07:25;18.50;99.90
23715;DHT22;12036;50.858;4.472;2022-07-23T05:09:50;18.70;99.90
23715;DHT22;12036;50.858;4.472;2022-07-23T05:12:16;18.90;99.90
23715;DHT22;12036;50.858;4.472;2022-07-23T05:14:41;18.90;99.90
23715;DHT22;12036;50.858;4.472;2022-07-23T05:17:08;18.90;99.90
23715;DHT22;12036;50.858;4.472;2022-07-23T05:19:34;19.00;99.90
23715;DHT22;12036;50.858;4.472;2022-07-23T05:22:00;19.10;99.90
23715;DHT22;12036;50.858;4.472;2022-07-23T05:24:25;19.10;99.90
23715;DHT22;12036;50.858;4.472;2022-07-23T05:26:51;19.20;99.90
23715;DHT22;12036;50.858;4.472;2022-07-23T05:29:17;19.10;99.90
23715;DHT22;12036;50.858;4.472;2022-07-23T05:31:43;18.90;99.90
23715;DHT22;12036;50.858;4.472;2022-07-23T05:34:09;18.90;99.90
23715;DHT22;12036;50.858;4.472;2022-07-23T05:36:35;18.80;99.90
23715;DHT22;12036;50.858;4.472;2022-07-23T05:39:01;18.70;99.90
23715;DHT22;12036;50.858;4.472;2022-07-23T05:41:27;18.60;99.90
23715;DHT22;12036;50.858;4.472;2022-07-23T05:43:52;18.60;99.90
23715;DHT22;12036;50.858;4.472;2022-07-23T05:46:18;18.50;99.90
23715;DHT22;12036;50.858;4.472;2022-07-23T05:48:43;18.50;99.90
23715;DHT22;12036;50.858;4.472;2022-07-23T05:51:11;18.40;99.90
23715;DHT22;12036;50.858;4.472;2022-07-23T05:53:37;18.40;99.90
23715;DHT22;12036;50.858;4.472;2022-07-23T05:56:03;18.40;99.90
23715;DHT22;12036;50.858;4.472;2022-07-23T05:58:29;18.40;99.90
23715;DHT22;12036;50.858;4.472;2022-07-23T06:00:55;18.40;99.90
23715;DHT22;12036;50.858;4.472;2022-07-23T06:03:21;18.50;99.90
23715;DHT22;12036;50.858;4.472;2022-07-23T06:05:47;18.50;99.90
23715;DHT22;12036;50.858;4.472;2022-07-23T06:08:12;18.60;99.90
23715;DHT22;12036;50.858;4.472;2022-07-23T06:10:38;18.60;99.90
23715;DHT22;12036;50.858;4.472;2022-07-23T06:13:03;18.80;99.90
23715;DHT22;12036;50.858;4.472;2022-07-23T06:15:29;19.40;99.90
23715;DHT22;12036;50.858;4.472;2022-07-23T06:17:55;20.10;99.90
23715;DHT22;12036;50.858;4.472;2022-07-23T06:20:21;20.60;99.90
23715;DHT22;12036;50.858;4.472;2022-07-23T06:22:47;20.70;99.90
23715;DHT22;12036;50.858;4.472;2022-07-23T06:25:12;20.90;99.90
23715;DHT22;12036;50.858;4.472;2022-07-23T06:27:38;21.30;99.90
23715;DHT22;12036;50.858;4.472;2022-07-23T06:30:04;21.30;99.90
23715;DHT22;12036;50.858;4.472;2022-07-23T06:32:31;21.20;99.90
23715;DHT22;12036;50.858;4.472;2022-07-23T06:34:56;20.90;99.90
23715;DHT22;12036;50.858;4.472;2022-07-23T06:37:22;20.80;99.90
23715;DHT22;12036;50.858;4.472;2022-07-23T06:39:47;20.70;99.90
23715;DHT22;12036;50.858;4.472;2022-07-23T06:42:13;20.50;99.90
23715;DHT22;12036;50.858;4.472;2022-07-23T06:44:40;20.40;99.90
23715;DHT22;12036;50.858;4.472;2022-07-23T06:47:06;20.30;99.90
23715;DHT22;12036;50.858;4.472;2022-07-23T06:49:31;20.30;99.90
23715;DHT22;12036;50.858;4.472;2022-07-23T06:51:57;20.30;99.90
23715;DHT22;12036;50.858;4.472;2022-07-23T06:54:23;20.20;99.90
23715;DHT22;12036;50.858;4.472;2022-07-23T06:56:48;20.10;99.90
23715;DHT22;12036;50.858;4.472;2022-07-23T06:59:14;19.90;99.90
23715;DHT22;12036;50.858;4.472;2022-07-23T07:01:40;20.00;99.90
23715;DHT22;12036;50.858;4.472;2022-07-23T07:04:05;20.00;99.90
23715;DHT22;12036;50.858;4.472;2022-07-23T07:06:31;20.50;99.90
23715;DHT22;12036;50.858;4.472;2022-07-23T07:08:57;21.20;99.90
23715;DHT22;12036;50.858;4.472;2022-07-23T07:11:22;21.60;99.90
23715;DHT22;12036;50.858;4.472;2022-07-23T07:13:49;21.80;99.90
23715;DHT22;12036;50.858;4.472;2022-07-23T07:16:15;22.00;99.90
23715;DHT22;12036;50.858;4.472;2022-07-23T07:18:40;22.00;99.90
23715;DHT22;12036;50.858;4.472;2022-07-23T07:21:06;22.00;99.90
23715;DHT22;12036;50.858;4.472;2022-07-23T07:23:32;22.00;99.90
23715;DHT22;12036;50.858;4.472;2022-07-23T07:25:57;22.20;99.90
23715;DHT22;12036;50.858;4.472;2022-07-23T07:28:23;22.30;99.90
23715;DHT22;12036;50.858;4.472;2022-07-23T07:30:49;22.30;99.90
23715;DHT22;12036;50.858;4.472;2022-07-23T07:33:14;22.20;99.70
23715;DHT22;12036;50.858;4.472;2022-07-23T07:35:40;22.10;99.90
23715;DHT22;12036;50.858;4.472;2022-07-23T07:38:06;22.00;99.90
23715;DHT22;12036;50.858;4.472;2022-07-23T07:40:31;21.90;99.90
23715;DHT22;12036;50.858;4.472;2022-07-23T07:42:57;21.70;99.90
23715;DHT22;12036;50.858;4.472;2022-07-23T07:45:24;21.50;99.90
23715;DHT22;12036;50.858;4.472;2022-07-23T07:47:51;21.30;99.90
23715;DHT22;12036;50.858;4.472;2022-07-23T07:50:18;21.30;99.90
23715;DHT22;12036;50.858;4.472;2022-07-23T07:52:44;21.40;99.90
23715;DHT22;12036;50.858;4.472;2022-07-23T07:55:10;21.50;99.90
23715;DHT22;12036;50.858;4.472;2022-07-23T07:57:36;21.50;99.90
23715;DHT22;12036;50.858;4.472;2022-07-23T08:00:03;21.50;99.90
23715;DHT22;12036;50.858;4.472;2022-07-23T08:02:29;21.50;99.90
23715;DHT22;12036;50.858;4.472;2022-07-23T08:05:04;21.60;99.90
23715;DHT22;12036;50.858;4.472;2022-07-23T08:07:30;21.60;99.90
23715;DHT22;12036;50.858;4.472;2022-07-23T08:09:56;21.60;99.90
23715;DHT22;12036;50.858;4.472;2022-07-23T08:12:21;21.60;99.90
23715;DHT22;12036;50.858;4.472;2022-07-23T08:14:47;21.70;99.90
23715;DHT22;12036;50.858;4.472;2022-07-23T08:17:13;21.70;99.90
23715;DHT22;12036;50.858;4.472;2022-07-23T08:19:38;21.70;99.90
23715;DHT22;12036;50.858;4.472;2022-07-23T08:22:04;21.90;99.50
23715;DHT22;12036;50.858;4.472;2022-07-23T08:24:29;21.90;99.30
23715;DHT22;12036;50.858;4.472;2022-07-23T08:26:55;21.90;99.40
23715;DHT22;12036;50.858;4.472;2022-07-23T08:29:20;21.90;99.50
23715;DHT22;12036;50.858;4.472;2022-07-23T08:31:46;21.90;99.40
23715;DHT22;12036;50.858;4.472;2022-07-23T08:34:12;22.00;99.20
23715;DHT22;12036;50.858;4.472;2022-07-23T08:36:37;22.00;98.70
23715;DHT22;12036;50.858;4.472;2022-07-23T08:39:03;22.00;98.80
23715;DHT22;12036;50.858;4.472;2022-07-23T08:41:29;22.00;98.70
23715;DHT22;12036;50.858;4.472;2022-07-23T08:43:55;22.10;99.00
23715;DHT22;12036;50.858;4.472;2022-07-23T08:46:22;22.30;98.50
23715;DHT22;12036;50.858;4.472;2022-07-23T08:48:49;22.50;98.10
23715;DHT22;12036;50.858;4.472;2022-07-23T08:51:15;22.70;97.10
23715;DHT22;12036;50.858;4.472;2022-07-23T08:53:42;22.80;97.00
23715;DHT22;12036;50.858;4.472;2022-07-23T08:56:08;23.00;96.90
23715;DHT22;12036;50.858;4.472;2022-07-23T08:58:34;23.30;96.50
23715;DHT22;12036;50.858;4.472;2022-07-23T09:01:01;23.90;94.80
23715;DHT22;12036;50.858;4.472;2022-07-23T09:03:30;24.70;93.50
23715;DHT22;12036;50.858;4.472;2022-07-23T09:05:57;24.90;93.10
23715;DHT22;12036;50.858;4.472;2022-07-23T09:08:35;24.80;93.30
23715;DHT22;12036;50.858;4.472;2022-07-23T09:11:03;24.80;92.80
23715;DHT22;12036;50.858;4.472;2022-07-23T09:13:33;24.70;92.10
23715;DHT22;12036;50.858;4.472;2022-07-23T09:16:10;24.70;92.10
23715;DHT22;12036;50.858;4.472;2022-07-23T09:24:08;25.40;88.80
23715;DHT22;12036;50.858;4.472;2022-07-23T09:29:08;25.50;86.90
23715;DHT22;12036;50.858;4.472;2022-07-23T09:34:28;25.60;84.90
23715;DHT22;12036;50.858;4.472;2022-07-23T09:37:18;25.40;84.80
23715;DHT22;12036;50.858;4.472;2022-07-23T09:39:44;25.10;85.40
23715;DHT22;12036;50.858;4.472;2022-07-23T09:44:47;25.00;86.00
23715;DHT22;12036;50.858;4.472;2022-07-23T09:47:13;25.30;85.90
23715;DHT22;12036;50.858;4.472;2022-07-23T09:49:39;25.30;85.60
23715;DHT22;12036;50.858;4.472;2022-07-23T09:52:06;25.50;84.60
23715;DHT22;12036;50.858;4.472;2022-07-23T09:54:39;26.10;83.40
23715;DHT22;12036;50.858;4.472;2022-07-23T09:57:10;26.80;80.70
23715;DHT22;12036;50.858;4.472;2022-07-23T09:59:43;27.30;77.80
23715;DHT22;12036;50.858;4.472;2022-07-23T10:02:11;27.10;77.90
23715;DHT22;12036;50.858;4.472;2022-07-23T10:04:38;27.00;78.40
23715;DHT22;12036;50.858;4.472;2022-07-23T10:07:06;27.10;76.20
23715;DHT22;12036;50.858;4.472;2022-07-23T10:09:36;27.40;75.40
23715;DHT22;12036;50.858;4.472;2022-07-23T10:12:09;27.60;73.80
23715;DHT22;12036;50.858;4.472;2022-07-23T10:14:41;28.10;72.80
23715;DHT22;12036;50.858;4.472;2022-07-23T10:17:08;29.00;71.60
23715;DHT22;12036;50.858;4.472;2022-07-23T10:19:34;29.90;68.30
23715;DHT22;12036;50.858;4.472;2022-07-23T10:22:08;30.50;66.80
23715;DHT22;12036;50.858;4.472;2022-07-23T10:27:48;31.90;61.50
23715;DHT22;12036;50.858;4.472;2022-07-23T10:30:30;32.60;59.90
23715;DHT22;12036;50.858;4.472;2022-07-23T10:33:17;33.40;57.30
23715;DHT22;12036;50.858;4.472;2022-07-23T10:36:09;33.80;54.60
23715;DHT22;12036;50.858;4.472;2022-07-23T10:39:08;33.40;53.90
23715;DHT22;12036;50.858;4.472;2022-07-23T10:41:39;33.40;54.20
23715;DHT22;12036;50.858;4.472;2022-07-23T10:44:14;33.70;52.40
23715;DHT22;12036;50.858;4.472;2022-07-23T10:47:06;34.10;51.70
23715;DHT22;12036;50.858;4.472;2022-07-23T10:50:18;33.90;50.90
23715;DHT22;12036;50.858;4.472;2022-07-23T10:58:05;33.10;51.90
23715;DHT22;12036;50.858;4.472;2022-07-23T11:00:32;33.10;50.80
23715;DHT22;12036;50.858;4.472;2022-07-23T11:03:28;32.30;52.90
23715;DHT22;12036;50.858;4.472;2022-07-23T11:05:51;32.50;53.60
23715;DHT22;12036;50.858;4.472;2022-07-23T11:08:18;32.50;54.60
23715;DHT22;12036;50.858;4.472;2022-07-23T11:10:54;32.60;52.60
23715;DHT22;12036;50.858;4.472;2022-07-23T11:13:26;32.80;52.00
23715;DHT22;12036;50.858;4.472;2022-07-23T11:24:19;33.00;51.50
23715;DHT22;12036;50.858;4.472;2022-07-23T11:26:47;32.50;51.90
23715;DHT22;12036;50.858;4.472;2022-07-23T11:32:18;32.50;51.20
23715;DHT22;12036;50.858;4.472;2022-07-23T11:34:46;32.60;50.60
23715;DHT22;12036;50.858;4.472;2022-07-23T11:37:39;32.10;53.40
23715;DHT22;12036;50.858;4.472;2022-07-23T11:40:15;32.30;52.30
23715;DHT22;12036;50.858;4.472;2022-07-23T11:45:29;32.70;50.50
23715;DHT22;12036;50.858;4.472;2022-07-23T11:47:54;32.30;50.40
23715;DHT22;12036;50.858;4.472;2022-07-23T11:50:23;32.00;52.40
23715;DHT22;12036;50.858;4.472;2022-07-23T11:52:50;31.80;51.80
23715;DHT22;12036;50.858;4.472;2022-07-23T11:55:16;31.80;51.60
23715;DHT22;12036;50.858;4.472;2022-07-23T11:57:43;31.30;54.10
23715;DHT22;12036;50.858;4.472;2022-07-23T12:00:15;31.10;53.60
23715;DHT22;12036;50.858;4.472;2022-07-23T12:02:43;30.80;55.10
23715;DHT22;12036;50.858;4.472;2022-07-23T12:05:24;30.50;54.70
23715;DHT22;12036;50.858;4.472;2022-07-23T12:07:51;30.10;54.00
23715;DHT22;12036;50.858;4.472;2022-07-23T12:10:39;29.90;53.30
23715;DHT22;12036;50.858;4.472;2022-07-23T12:13:17;29.70;53.40
23715;DHT22;12036;50.858;4.472;2022-07-23T12:15:49;29.70;54.90
23715;DHT22;12036;50.858;4.472;2022-07-23T12:18:23;29.70;57.10
23715;DHT22;12036;50.858;4.472;2022-07-23T12:20:51;29.70;54.80
23715;DHT22;12036;50.858;4.472;2022-07-23T12:23:19;29.70;54.00
23715;DHT22;12036;50.858;4.472;2022-07-23T12:25:46;29.60;54.60
23715;DHT22;12036;50.858;4.472;2022-07-23T12:28:17;29.50;55.20
23715;DHT22;12036;50.858;4.472;2022-07-23T12:30:45;29.40;55.50
23715;DHT22;12036;50.858;4.472;2022-07-23T12:33:21;29.10;56.80
23715;DHT22;12036;50.858;4.472;2022-07-23T12:35:47;29.20;56.20
23715;DHT22;12036;50.858;4.472;2022-07-23T12:38:15;29.40;55.90
23715;DHT22;12036;50.858;4.472;2022-07-23T12:40:46;29.40;56.00
23715;DHT22;12036;50.858;4.472;2022-07-23T12:43:20;29.50;54.70
23715;DHT22;12036;50.858;4.472;2022-07-23T12:45:49;29.50;55.00
23715;DHT22;12036;50.858;4.472;2022-07-23T12:51:08;28.90;56.80
23715;DHT22;12036;50.858;4.472;2022-07-23T12:53:52;28.50;56.10
23715;DHT22;12036;50.858;4.472;2022-07-23T12:56:26;28.40;56.40
23715;DHT22;12036;50.858;4.472;2022-07-23T12:58:55;28.60;56.30
23715;DHT22;12036;50.858;4.472;2022-07-23T13:06:36;29.40;56.50
23715;DHT22;12036;50.858;4.472;2022-07-23T13:09:04;29.20;56.20
23715;DHT22;12036;50.858;4.472;2022-07-23T13:11:30;28.80;56.50
23715;DHT22;12036;50.858;4.472;2022-07-23T13:13:55;28.50;56.10
23715;DHT22;12036;50.858;4.472;2022-07-23T13:16:21;28.20;56.60
23715;DHT22;12036;50.858;4.472;2022-07-23T13:18:47;28.00;57.20
23715;DHT22;12036;50.858;4.472;2022-07-23T13:21:12;27.80;57.70
23715;DHT22;12036;50.858;4.472;2022-07-23T13:23:38;27.50;57.50
23715;DHT22;12036;50.858;4.472;2022-07-23T13:26:04;27.40;57.60
23715;DHT22;12036;50.858;4.472;2022-07-23T13:28:30;27.30;57.60
23715;DHT22;12036;50.858;4.472;2022-07-23T13:30:55;27.30;57.80
23715;DHT22;12036;50.858;4.472;2022-07-23T13:33:23;27.30;57.90
23715;DHT22;12036;50.858;4.472;2022-07-23T13:35:50;27.30;57.70
23715;DHT22;12036;50.858;4.472;2022-07-23T13:38:17;27.30;58.00
23715;DHT22;12036;50.858;4.472;2022-07-23T13:40:45;27.20;57.40
23715;DHT22;12036;50.858;4.472;2022-07-23T13:43:13;27.10;58.00
23715;DHT22;12036;50.858;4.472;2022-07-23T13:45:40;27.10;58.50
23715;DHT22;12036;50.858;4.472;2022-07-23T13:48:08;27.10;58.40
23715;DHT22;12036;50.858;4.472;2022-07-23T13:50:35;27.00;58.20
23715;DHT22;12036;50.858;4.472;2022-07-23T13:53:05;27.00;58.20
23715;DHT22;12036;50.858;4.472;2022-07-23T13:55:32;27.00;58.40
23715;DHT22;12036;50.858;4.472;2022-07-23T13:57:58;26.90;58.30
23715;DHT22;12036;50.858;4.472;2022-07-23T14:00:25;27.00;59.50
23715;DHT22;12036;50.858;4.472;2022-07-23T14:02:51;27.00;59.30
23715;DHT22;12036;50.858;4.472;2022-07-23T14:05:16;27.00;59.50
23715;DHT22;12036;50.858;4.472;2022-07-23T14:07:42;27.00;59.20
23715;DHT22;12036;50.858;4.472;2022-07-23T14:10:10;27.20;58.90
23715;DHT22;12036;50.858;4.472;2022-07-23T14:12:36;27.20;57.90
23715;DHT22;12036;50.858;4.472;2022-07-23T14:15:04;27.20;58.60
23715;DHT22;12036;50.858;4.472;2022-07-23T14:17:30;27.10;60.00
23715;DHT22;12036;50.858;4.472;2022-07-23T14:19:57;27.10;60.00
23715;DHT22;12036;50.858;4.472;2022-07-23T14:22:22;27.10;59.60
23715;DHT22;12036;50.858;4.472;2022-07-23T14:24:49;27.00;60.00
23715;DHT22;12036;50.858;4.472;2022-07-23T14:27:14;26.90;59.70
23715;DHT22;12036;50.858;4.472;2022-07-23T14:29:40;26.90;63.30
23715;DHT22;12036;50.858;4.472;2022-07-23T14:32:06;26.90;61.50
23715;DHT22;12036;50.858;4.472;2022-07-23T14:34:33;26.90;60.30
23715;DHT22;12036;50.858;4.472;2022-07-23T14:36:59;26.90;59.30
23715;DHT22;12036;50.858;4.472;2022-07-23T14:39:25;27.10;58.50
23715;DHT22;12036;50.858;4.472;2022-07-23T14:41:51;27.40;57.70
23715;DHT22;12036;50.858;4.472;2022-07-23T14:44:16;27.60;57.90
23715;DHT22;12036;50.858;4.472;2022-07-23T14:46:42;27.80;58.20
23715;DHT22;12036;50.858;4.472;2022-07-23T14:49:08;27.70;58.00
23715;DHT22;12036;50.858;4.472;2022-07-23T14:51:34;27.70;58.20
23715;DHT22;12036;50.858;4.472;2022-07-23T14:53:59;27.70;57.50
23715;DHT22;12036;50.858;4.472;2022-07-23T14:56:25;27.80;58.40
23715;DHT22;12036;50.858;4.472;2022-07-23T14:58:51;27.80;58.40
23715;DHT22;12036;50.858;4.472;2022-07-23T15:01:16;27.80;58.10
23715;DHT22;12036;50.858;4.472;2022-07-23T15:03:42;27.90;57.50
23715;DHT22;12036;50.858;4.472;2022-07-23T15:06:07;27.90;57.50
23715;DHT22;12036;50.858;4.472;2022-07-23T15:08:33;27.90;58.20
23715;DHT22;12036;50.858;4.472;2022-07-23T15:10:59;27.80;57.20
23715;DHT22;12036;50.858;4.472;2022-07-23T15:13:25;27.90;57.30
23715;DHT22;12036;50.858;4.472;2022-07-23T15:15:50;27.80;57.30
23715;DHT22;12036;50.858;4.472;2022-07-23T15:18:16;27.90;57.50
23715;DHT22;12036;50.858;4.472;2022-07-23T15:20:41;28.10;57.50
23715;DHT22;12036;50.858;4.472;2022-07-23T15:23:07;28.30;58.10
23715;DHT22;12036;50.858;4.472;2022-07-23T15:25:34;28.60;56.60
23715;DHT22;12036;50.858;4.472;2022-07-23T15:28:00;28.80;55.90
23715;DHT22;12036;50.858;4.472;2022-07-23T15:30:26;28.80;56.60
23715;DHT22;12036;50.858;4.472;2022-07-23T15:32:52;28.80;57.20
23715;DHT22;12036;50.858;4.472;2022-07-23T15:35:19;28.80;56.00
23715;DHT22;12036;50.858;4.472;2022-07-23T15:37:45;28.80;55.60
23715;DHT22;12036;50.858;4.472;2022-07-23T15:40:11;28.90;56.80
23715;DHT22;12036;50.858;4.472;2022-07-23T15:42:36;28.90;56.60
23715;DHT22;12036;50.858;4.472;2022-07-23T15:45:04;28.70;56.80
23715;DHT22;12036;50.858;4.472;2022-07-23T15:47:30;28.50;56.50
23715;DHT22;12036;50.858;4.472;2022-07-23T15:49:56;28.40;56.50
23715;DHT22;12036;50.858;4.472;2022-07-23T15:52:22;28.20;57.10
23715;DHT22;12036;50.858;4.472;2022-07-23T15:54:47;28.10;57.40
23715;DHT22;12036;50.858;4.472;2022-07-23T15:57:13;28.20;56.90
23715;DHT22;12036;50.858;4.472;2022-07-23T15:59:39;28.10;56.30
23715;DHT22;12036;50.858;4.472;2022-07-23T16:02:05;28.10;57.70
23715;DHT22;12036;50.858;4.472;2022-07-23T16:04:31;28.00;56.90
23715;DHT22;12036;50.858;4.472;2022-07-23T16:06:58;28.20;56.80
23715;DHT22;12036;50.858;4.472;2022-07-23T16:09:24;28.40;57.00
23715;DHT22;12036;50.858;4.472;2022-07-23T16:11:50;28.40;56.50
23715;DHT22;12036;50.858;4.472;2022-07-23T16:14:16;28.60;55.90